Time;durP1;ratioP1;P1;durP2;ratioP2;P2;SDS_P1;SDS_P2;PMS_P1;PMS_P2;Temp;Humidity;BMP_temperature;BMP_pressure;BME280_temperature;BME280_humidity;BME280_pressure;Samples;Min_cycle;Max_cycle;Signal;HPM_P1;HPM_P2
2021/09/21 00:00:31;;;;;;;12.60;9.57;;;;;;;16.65;100.00;96917.50;4989384;28;20085;-59
2021/09/21 00:02:59;;;;;;;11.82;9.25;;;;;;;16.74;100.00;96913.84;4989890;28;20058;-60
2021/09/21 00:05:28;;;;;;;13.15;8.68;;;;;;;17.04;100.00;96917.56;4981156;28;20070;-59
2021/09/21 00:07:56;;;;;;;10.27;8.20;;;;;;;17.18;100.00;96913.34;4986790;28;20054;-58
2021/09/21 00:10:26;;;;;;;10.48;8.55;;;;;;;17.17;100.00;96917.03;4989598;28;20476;-59
2021/09/21 00:12:55;;;;;;;12.40;8.65;;;;;;;17.09;100.00;96907.22;4986666;28;20373;-60
2021/09/21 00:15:24;;;;;;;12.70;8.35;;;;;;;16.93;100.00;96911.78;4985904;28;20076;-58
2021/09/21 00:17:52;;;;;;;11.20;7.95;;;;;;;17.01;100.00;96909.91;4989178;28;20073;-59
2021/09/21 00:20:21;;;;;;;11.52;8.77;;;;;;;16.58;100.00;96911.22;4986801;28;20077;-59
2021/09/21 00:22:50;;;;;;;11.98;8.93;;;;;;;16.33;100.00;96905.13;4985246;28;20481;-59
2021/09/21 00:25:18;;;;;;;12.73;9.60;;;;;;;16.68;100.00;96898.53;4991721;28;20097;-59
2021/09/21 00:27:48;;;;;;;14.10;8.85;;;;;;;16.85;100.00;96900.16;4991588;28;20089;-60
2021/09/21 00:30:19;;;;;;;12.70;9.68;;;;;;;16.66;100.00;96899.72;4988957;28;20082;-58
2021/09/21 00:32:49;;;;;;;;;;;;;;;16.57;100.00;96906.91;4983773;28;20070;-55
2021/09/21 00:35:18;;;;;;;12.52;9.60;;;;;;;16.73;100.00;96906.84;4989019;28;19961;-59
2021/09/21 00:37:46;;;;;;;11.93;9.27;;;;;;;16.79;100.00;96900.00;4991393;28;20101;-59
2021/09/21 00:40:14;;;;;;;12.15;9.25;;;;;;;17.01;100.00;96906.44;4991748;28;20462;-60
2021/09/21 00:42:44;;;;;;;12.90;8.98;;;;;;;16.89;100.00;96913.97;4988723;28;20068;-58
2021/09/21 00:45:23;;;;;;;13.07;9.45;;;;;;;16.44;100.00;96917.25;4988647;28;20082;-58
2021/09/21 00:47:52;;;;;;;12.05;9.35;;;;;;;16.65;100.00;96919.34;4987181;28;20629;-59
2021/09/21 00:50:21;;;;;;;11.40;9.10;;;;;;;16.96;100.00;96917.59;4988127;28;20070;-59
2021/09/21 00:52:50;;;;;;;11.95;8.70;;;;;;;17.06;100.00;96926.22;4989659;28;21131;-61
2021/09/21 00:55:19;;;;;;;13.85;9.30;;;;;;;17.07;100.00;96921.72;4989756;28;20081;-57
2021/09/21 00:57:48;;;;;;;11.15;8.98;;;;;;;17.11;100.00;96907.06;4984220;28;20062;-58
2021/09/21 01:00:18;;;;;;;12.20;9.55;;;;;;;17.46;100.00;96911.00;4984898;28;20070;-59
2021/09/21 01:02:48;;;;;;;10.38;8.63;;;;;;;17.47;100.00;96911.81;4985981;28;20089;-60
2021/09/21 01:05:17;;;;;;;12.65;9.05;;;;;;;17.18;100.00;96910.69;4985015;28;20084;-59
2021/09/21 01:07:46;;;;;;;14.52;9.45;;;;;;;16.98;100.00;96915.59;4986162;28;20624;-59
2021/09/21 01:10:16;;;;;;;11.32;8.82;;;;;;;17.24;100.00;96915.31;4987190;28;20082;-59
2021/09/21 01:12:45;;;;;;;;;;;;;;;17.37;100.00;96912.06;4985923;28;20093;-59
2021/09/21 01:15:14;;;;;;;12.85;9.35;;;;;;;17.58;100.00;96910.59;4986969;28;19980;-58
2021/09/21 01:17:43;;;;;;;12.48;9.30;;;;;;;17.64;100.00;96913.38;4980560;28;20073;-60
2021/09/21 01:20:14;;;;;;;13.32;9.10;;;;;;;17.82;100.00;96912.28;4986799;28;20482;-59
2021/09/21 01:22:43;;;;;;;13.40;9.15;;;;;;;17.85;100.00;96917.25;4984093;28;20461;-58
2021/09/21 01:25:13;;;;;;;13.48;9.02;;;;;;;17.93;100.00;96912.69;4986991;28;20078;-56
2021/09/21 01:27:42;;;;;;;11.93;9.17;;;;;;;17.95;100.00;96916.00;4988432;28;20081;-59
2021/09/21 01:30:13;;;;;;;14.68;8.68;;;;;;;17.81;100.00;96916.78;4989368;28;20084;-58
2021/09/21 01:32:42;;;;;;;12.38;9.07;;;;;;;17.96;100.00;96917.69;4985196;28;20069;-57
2021/09/21 01:35:12;;;;;;;12.00;8.85;;;;;;;17.92;100.00;96916.34;4989321;28;20088;-58
2021/09/21 01:37:46;;;;;;;10.77;8.43;;;;;;;17.93;100.00;96919.88;4987116;28;20107;-58
2021/09/21 01:40:15;;;;;;;12.55;9.30;;;;;;;17.96;100.00;96925.69;4984260;28;20085;-57
2021/09/21 01:42:44;;;;;;;12.65;8.52;;;;;;;17.81;100.00;96927.47;4985556;28;20081;-59
2021/09/21 01:45:14;;;;;;;12.13;8.65;;;;;;;17.82;100.00;96928.28;4984237;28;20074;-58
2021/09/21 01:47:44;;;;;;;11.80;8.80;;;;;;;17.65;100.00;96928.41;4984685;28;20660;-59
2021/09/21 01:50:23;;;;;;;12.45;9.52;;;;;;;17.75;100.00;96928.13;4987327;28;20070;-58
2021/09/21 01:52:56;;;;;;;10.55;8.05;;;;;;;17.51;100.00;96934.47;4989183;28;20497;-60
2021/09/21 02:01:02;;;;;;;13.45;8.38;;;;;;;17.78;100.00;96941.16;4937676;28;20335;-58
2021/09/21 02:03:31;;;;;;;12.00;8.07;;;;;;;17.71;100.00;96934.84;4987870;28;20070;-58
2021/09/21 02:05:59;;;;;;;11.57;8.57;;;;;;;17.83;100.00;96948.63;4981745;28;20095;-59
2021/09/21 02:08:29;;;;;;;16.58;8.45;;;;;;;17.69;100.00;96950.22;4982745;28;20074;-60
2021/09/21 02:10:58;;;;;;;12.02;8.93;;;;;;;17.60;100.00;96951.25;4981479;28;20074;-59
2021/09/21 02:13:26;;;;;;;11.02;8.60;;;;;;;17.65;100.00;96951.53;4990521;28;20086;-61
2021/09/21 02:15:55;;;;;;;10.93;8.40;;;;;;;17.74;100.00;96951.31;4990755;28;20389;-58
2021/09/21 02:18:24;;;;;;;14.57;9.48;;;;;;;17.77;100.00;96947.50;4989294;28;20076;-58
2021/09/21 02:20:52;;;;;;;13.38;9.80;;;;;;;17.82;100.00;96949.63;4992450;28;20069;-59
2021/09/21 02:23:20;;;;;;;11.55;8.95;;;;;;;17.78;100.00;96947.31;4988341;28;20074;-58
2021/09/21 02:25:50;;;;;;;10.32;8.95;;;;;;;17.66;100.00;96940.72;4989266;28;20088;-59
2021/09/21 02:28:19;;;;;;;11.70;8.82;;;;;;;17.60;100.00;96946.75;4990170;28;20086;-59
2021/09/21 02:30:48;;;;;;;13.57;9.60;;;;;;;17.68;100.00;96951.19;4991713;28;20458;-59
2021/09/21 02:33:16;;;;;;;10.57;8.93;;;;;;;17.37;100.00;96951.22;4990608;28;20078;-57
2021/09/21 02:35:45;;;;;;;12.55;9.25;;;;;;;17.71;100.00;96954.34;4988952;28;20062;-58
2021/09/21 02:38:13;;;;;;;12.68;9.98;;;;;;;17.24;100.00;96941.97;4989419;28;20433;-59
2021/09/21 02:40:41;;;;;;;10.43;8.55;;;;;;;17.02;100.00;96946.22;4985456;28;20097;-61
2021/09/21 02:43:11;;;;;;;9.35;8.23;;;;;;;17.60;100.00;96956.59;4994535;28;20086;-59
2021/09/21 02:45:40;;;;;;;10.85;8.50;;;;;;;17.68;100.00;96961.84;4989346;28;20069;-59
2021/09/21 02:48:08;;;;;;;9.80;8.10;;;;;;;17.69;100.00;96963.53;4991327;28;20081;-58
2021/09/21 02:50:37;;;;;;;11.40;8.43;;;;;;;17.82;100.00;96971.78;4990660;28;20069;-58
2021/09/21 02:53:06;;;;;;;11.65;8.40;;;;;;;17.60;100.00;96973.41;4990970;28;20090;-59
2021/09/21 02:55:34;;;;;;;12.45;9.07;;;;;;;17.50;100.00;96962.16;4986141;28;20070;-58
2021/09/21 02:58:03;;;;;;;11.82;9.05;;;;;;;17.63;100.00;96964.25;4989685;28;20090;-57
2021/09/21 03:00:32;;;;;;;11.15;9.02;;;;;;;17.73;100.00;96964.84;4987825;28;20082;-59
2021/09/21 03:03:03;;;;;;;13.40;8.40;;;;;;;17.81;100.00;96961.31;4997317;28;20080;-58
2021/09/21 03:05:35;;;;;;;13.55;9.80;;;;;;;17.63;100.00;96962.41;4990370;28;20077;-59
2021/09/21 03:08:06;;;;;;;11.82;8.98;;;;;;;17.04;100.00;96962.88;4988612;28;20080;-59
2021/09/21 03:10:46;;;;;;;13.45;9.65;;;;;;;17.04;100.00;96959.38;4994693;28;20085;-57
2021/09/21 03:13:41;;;;;;;10.68;9.30;;;;;;;17.26;100.00;96963.94;4985925;28;20078;-60
2021/09/21 03:18:57;;;;;;;11.18;8.90;;;;;;;17.46;100.00;96979.50;4987079;28;20483;-58
2021/09/21 03:21:25;;;;;;;11.15;8.63;;;;;;;17.19;100.00;96975.47;4987809;28;20831;-58
2021/09/21 03:23:54;;;;;;;12.68;9.02;;;;;;;16.88;100.00;96970.09;4986235;28;20070;-59
2021/09/21 03:26:22;;;;;;;11.35;9.73;;;;;;;16.68;100.00;96973.09;4992515;28;20156;-57
2021/09/21 03:28:51;;;;;;;13.48;9.85;;;;;;;17.37;100.00;96972.53;4988910;28;20516;-59
2021/09/21 03:31:21;;;;;;;13.55;9.60;;;;;;;17.06;100.00;96978.69;4991258;28;20089;-58
2021/09/21 03:33:49;;;;;;;12.50;9.35;;;;;;;17.41;100.00;96976.50;4986262;28;20088;-63
2021/09/21 03:36:18;;;;;;;12.13;9.60;;;;;;;17.38;100.00;96975.06;4990038;28;20069;-58
2021/09/21 03:38:46;;;;;;;10.77;8.88;;;;;;;17.38;100.00;96985.72;4987897;28;20058;-59
2021/09/21 03:41:14;;;;;;;13.73;9.32;;;;;;;17.64;100.00;96980.06;4984840;28;20093;-59
2021/09/21 03:43:43;;;;;;;14.55;9.15;;;;;;;17.55;100.00;96983.78;4989874;28;20089;-57
2021/09/21 03:46:11;;;;;;;10.45;8.50;;;;;;;17.64;100.00;96981.91;4992706;28;20524;-59
2021/09/21 03:48:41;;;;;;;10.50;8.88;;;;;;;17.86;100.00;96980.28;4988374;28;20062;-58
2021/09/21 03:51:10;;;;;;;10.50;8.95;;;;;;;17.26;100.00;96974.59;4983684;28;20073;-57
2021/09/21 03:53:38;;;;;;;11.05;9.13;;;;;;;17.49;100.00;96979.97;4991120;28;20065;-55
2021/09/21 03:56:07;;;;;;;12.07;9.80;;;;;;;17.55;100.00;96975.78;4988935;28;20494;-57
2021/09/21 03:58:35;;;;;;;11.13;9.20;;;;;;;17.59;100.00;96977.09;4989840;28;20180;-56
2021/09/21 04:01:04;;;;;;;13.65;9.23;;;;;;;17.56;100.00;96986.28;4989993;28;20082;-58
2021/09/21 04:03:32;;;;;;;14.77;9.63;;;;;;;17.65;100.00;96995.06;4986487;28;20547;-57
2021/09/21 04:06:02;;;;;;;11.32;8.60;;;;;;;17.64;100.00;96995.22;4979425;28;20081;-59
2021/09/21 04:08:31;;;;;;;10.48;8.55;;;;;;;17.71;100.00;96994.34;4990099;28;20070;-57
2021/09/21 04:10:59;;;;;;;13.32;8.93;;;;;;;17.77;100.00;96991.00;4989781;28;20452;-59
2021/09/21 04:13:28;;;;;;;12.55;9.27;;;;;;;17.61;100.00;96988.41;4992132;28;20474;-58
2021/09/21 04:15:56;;;;;;;13.48;9.02;;;;;;;17.72;100.00;96989.84;4986092;28;20170;-59
2021/09/21 04:18:25;;;;;;;12.38;9.57;;;;;;;17.61;100.00;96985.75;4990138;28;20073;-57
2021/09/21 04:20:53;;;;;;;13.73;9.48;;;;;;;17.23;100.00;96996.25;4992394;28;20070;-59
2021/09/21 04:23:23;;;;;;;17.67;10.23;;;;;;;17.08;100.00;96998.81;4992744;28;20076;-58
2021/09/21 04:25:51;;;;;;;15.68;10.90;;;;;;;17.19;100.00;97004.78;4987961;28;20105;-59
2021/09/21 04:28:21;;;;;;;15.68;10.52;;;;;;;16.95;100.00;97009.19;4998191;28;20082;-58
2021/09/21 04:30:49;;;;;;;13.50;10.90;;;;;;;16.79;100.00;97010.09;4988042;28;20073;-57
2021/09/21 04:33:18;;;;;;;16.83;11.75;;;;;;;16.81;100.00;97007.22;4989190;28;20457;-58
2021/09/21 04:35:46;;;;;;;15.00;11.43;;;;;;;16.77;100.00;97016.56;4993583;28;20064;-58
2021/09/21 04:38:15;;;;;;;18.77;12.85;;;;;;;16.63;100.00;97026.06;4990874;28;20073;-58
2021/09/21 04:40:45;;;;;;;18.17;12.43;;;;;;;16.85;100.00;97019.22;4987420;28;20100;-56
2021/09/21 04:43:13;;;;;;;16.67;11.85;;;;;;;16.87;100.00;97025.22;4989466;28;20206;-58
2021/09/21 04:45:42;;;;;;;17.30;12.30;;;;;;;16.95;100.00;97029.69;4992709;28;20110;-59
2021/09/21 04:48:10;;;;;;;15.20;11.60;;;;;;;16.83;100.00;97031.88;4990054;28;20073;-59
2021/09/21 04:50:38;;;;;;;16.67;12.68;;;;;;;17.08;100.00;97027.31;4982627;28;20073;-52
2021/09/21 04:53:07;;;;;;;16.55;12.05;;;;;;;17.05;100.00;97038.31;4986777;28;20062;-58
2021/09/21 04:55:35;;;;;;;15.93;12.88;;;;;;;17.21;100.00;97048.09;4985495;28;20086;-58
2021/09/21 04:58:05;;;;;;;16.90;12.75;;;;;;;17.13;100.00;97051.59;4987805;28;20070;-57
2021/09/21 05:00:34;;;;;;;17.60;12.77;;;;;;;17.19;100.00;97047.44;4985536;28;20073;-57
2021/09/21 05:03:02;;;;;;;16.55;12.52;;;;;;;17.35;100.00;97041.22;4985096;28;20508;-57
2021/09/21 05:05:31;;;;;;;16.95;13.43;;;;;;;17.39;100.00;97040.69;4984075;28;20066;-59
2021/09/21 05:07:59;;;;;;;17.48;12.68;;;;;;;17.42;100.00;97043.00;4985757;28;20070;-58
2021/09/21 05:10:29;;;;;;;18.90;13.38;;;;;;;17.45;100.00;97052.50;4985946;28;20085;-58
2021/09/21 05:12:57;;;;;;;18.20;13.23;;;;;;;17.62;100.00;97046.09;4982273;28;20097;-58
2021/09/21 05:15:27;;;;;;;17.35;12.95;;;;;;;17.26;100.00;97045.75;4985112;28;20077;-56
2021/09/21 05:17:56;;;;;;;17.10;13.68;;;;;;;17.39;100.00;97055.88;4986220;28;20077;-58
2021/09/21 05:20:25;;;;;;;16.77;13.55;;;;;;;17.17;100.00;97060.09;4981601;28;20053;-59
2021/09/21 05:22:54;;;;;;;16.85;12.80;;;;;;;17.62;100.00;97064.78;4983261;28;20672;-54
2021/09/21 05:25:23;;;;;;;16.13;13.20;;;;;;;17.73;100.00;97059.03;4993677;28;20093;-56
2021/09/21 05:27:51;;;;;;;17.35;12.85;;;;;;;17.88;100.00;97064.47;4987699;28;20064;-57
2021/09/21 05:30:20;;;;;;;15.10;12.15;;;;;;;17.96;100.00;97076.94;4988953;28;20088;-58
2021/09/21 05:32:50;;;;;;;18.30;13.27;;;;;;;17.87;100.00;97081.50;4986922;28;20472;-58
2021/09/21 05:35:19;;;;;;;15.93;12.38;;;;;;;17.70;100.00;97080.72;4987793;28;20426;-52
2021/09/21 05:37:47;;;;;;;15.68;12.77;;;;;;;17.91;100.00;97080.16;4989097;28;20146;-59
2021/09/21 05:40:16;;;;;;;16.48;12.60;;;;;;;17.86;100.00;97100.34;4987802;28;20086;-58
2021/09/21 05:42:45;;;;;;;16.77;13.23;;;;;;;17.54;100.00;97096.78;4990255;28;20101;-60
2021/09/21 05:45:14;;;;;;;15.77;12.75;;;;;;;17.83;100.00;97098.06;4985772;28;20073;-58
2021/09/21 05:47:43;;;;;;;15.85;12.45;;;;;;;17.84;100.00;97107.72;4987024;28;20065;-60
2021/09/21 05:50:14;;;;;;;18.70;12.50;;;;;;;18.06;100.00;97106.09;4989117;28;20082;-58
2021/09/21 05:52:44;;;;;;;16.98;13.10;;;;;;;18.17;100.00;97111.88;4983744;28;20078;-58
2021/09/21 05:55:13;;;;;;;;;;;;;;;17.94;100.00;97129.69;4987727;28;20092;-59
2021/09/21 05:57:43;;;;;;;16.77;11.85;;;;;;;18.15;100.00;97129.06;4984644;28;19964;-58
2021/09/21 06:00:13;;;;;;;15.20;12.40;;;;;;;18.23;100.00;97127.16;4985385;28;20073;-59
2021/09/21 06:02:41;;;;;;;;;;;;;;;18.31;100.00;97130.81;4982115;28;20070;-59
2021/09/21 06:05:13;;;;;;;17.13;12.23;;;;;;;18.38;100.00;97134.44;4985561;28;19965;-58
2021/09/21 06:07:45;;;;;;;16.58;13.23;;;;;;;18.40;100.00;97135.06;4984358;28;20078;-59
2021/09/21 06:10:14;;;;;;;17.98;13.60;;;;;;;18.24;100.00;97142.19;4986409;28;20059;-58
2021/09/21 06:12:43;;;;;;;16.17;13.00;;;;;;;18.30;100.00;97143.31;4983507;28;20073;-54
2021/09/21 06:15:13;;;;;;;16.52;12.60;;;;;;;18.37;100.00;97151.44;4982450;28;20070;-58
2021/09/21 06:17:42;;;;;;;15.93;12.30;;;;;;;18.50;100.00;97154.38;4984345;28;20069;-58
2021/09/21 06:20:11;;;;;;;14.93;12.30;;;;;;;18.65;100.00;97154.44;4984256;28;20072;-57
2021/09/21 06:22:44;;;;;;;17.60;13.30;;;;;;;18.75;100.00;97152.38;4986003;28;20112;-59
2021/09/21 06:25:13;;;;;;;15.82;12.30;;;;;;;18.86;100.00;97159.16;4986354;28;20493;-60
2021/09/21 06:27:42;;;;;;;18.80;13.15;;;;;;;18.87;100.00;97164.31;4987726;28;20066;-57
2021/09/21 06:30:13;;;;;;;16.08;12.82;;;;;;;18.77;100.00;97169.06;4982285;28;20038;-59
2021/09/21 06:32:42;;;;;;;16.60;13.40;;;;;;;18.70;100.00;97165.41;4990134;28;20092;-58
2021/09/21 06:35:11;;;;;;;19.52;13.82;;;;;;;18.83;100.00;97173.72;4981868;28;20057;-57
2021/09/21 06:37:41;;;;;;;23.45;16.35;;;;;;;18.58;100.00;97173.03;4983617;28;20092;-57
2021/09/21 06:40:11;;;;;;;17.40;14.25;;;;;;;18.66;100.00;97174.81;4985283;28;20070;-56
2021/09/21 06:42:41;;;;;;;17.25;13.50;;;;;;;18.74;100.00;97177.44;4985365;28;20465;-60
2021/09/21 06:45:10;;;;;;;;;;;;;;;18.84;100.00;97179.88;4981523;28;20066;-58
2021/09/21 06:47:39;;;;;;;16.63;13.27;;;;;;;19.01;98.19;97177.91;4983699;28;19965;-59
2021/09/21 06:50:08;;;;;;;18.48;13.77;;;;;;;18.88;97.78;97178.50;4980388;28;20057;-56
2021/09/21 06:52:37;;;;;;;18.08;13.70;;;;;;;18.74;97.41;97182.78;4978669;28;20085;-56
2021/09/21 06:55:09;;;;;;;21.00;13.55;;;;;;;18.92;95.17;97185.16;4986044;28;20551;-53
2021/09/21 06:57:38;;;;;;;18.35;13.68;;;;;;;18.89;94.25;97186.38;4985108;28;20101;-57
2021/09/21 07:00:09;;;;;;;19.42;13.73;;;;;;;18.92;93.33;97187.81;4983906;28;20089;-59
2021/09/21 07:02:39;;;;;;;16.92;13.00;;;;;;;18.95;93.74;97179.44;4980956;28;20169;-58
2021/09/21 07:05:09;;;;;;;16.00;13.63;;;;;;;18.94;94.31;97177.81;4983841;28;20445;-58
2021/09/21 07:07:38;;;;;;;16.35;13.68;;;;;;;17.68;100.00;97183.25;4980549;28;20076;-58
2021/09/21 07:10:09;;;;;;;15.98;13.00;;;;;;;18.31;100.00;97174.38;4990595;28;20389;-59
2021/09/21 07:12:37;;;;;;;16.67;13.45;;;;;;;17.82;100.00;97179.06;4984702;28;20077;-59
2021/09/21 07:15:07;;;;;;;18.15;13.82;;;;;;;18.24;100.00;97181.41;4986216;28;20078;-59
2021/09/21 07:17:35;;;;;;;16.85;13.05;;;;;;;18.67;99.89;97187.16;4979959;28;20457;-58
2021/09/21 07:20:05;;;;;;;16.80;13.60;;;;;;;18.39;98.26;97181.50;4989572;28;20062;-58
2021/09/21 07:22:33;;;;;;;17.00;13.35;;;;;;;18.42;99.28;97187.31;4988059;28;20077;-56
2021/09/21 07:25:02;;;;;;;17.98;13.20;;;;;;;19.21;91.90;97181.75;4991444;28;20082;-59
2021/09/21 07:27:32;;;;;;;17.77;13.65;;;;;;;18.84;94.69;97178.03;4983017;28;20062;-58
2021/09/21 07:30:01;;;;;;;19.20;14.45;;;;;;;18.70;92.63;97192.97;5018316;28;20065;-59
2021/09/21 07:32:29;;;;;;;19.42;13.77;;;;;;;19.21;85.82;97195.13;4987383;28;20065;-58
2021/09/21 07:34:58;;;;;;;17.17;14.10;;;;;;;19.50;84.64;97197.00;4983396;28;20245;-58
2021/09/21 07:37:27;;;;;;;19.65;13.65;;;;;;;19.15;83.86;97198.50;4989795;28;20089;-55
2021/09/21 07:39:55;;;;;;;18.08;13.95;;;;;;;18.52;89.24;97210.31;4982109;28;20061;-56
2021/09/21 07:42:24;;;;;;;16.73;13.70;;;;;;;19.24;85.27;97209.97;4987503;28;20078;-57
2021/09/21 07:44:54;;;;;;;16.98;13.75;;;;;;;18.18;86.54;97214.97;5016728;28;20081;-57
2021/09/21 07:47:23;;;;;;;16.60;13.93;;;;;;;18.77;83.67;97211.81;4999547;28;20073;-58
2021/09/21 07:49:51;;;;;;;16.70;13.00;;;;;;;19.23;79.29;97214.47;4982560;28;20058;-58
2021/09/21 07:52:20;;;;;;;14.20;11.30;;;;;;;19.72;69.28;97213.19;4985508;28;20088;-58
2021/09/21 07:54:48;;;;;;;12.70;10.55;;;;;;;19.20;65.25;97228.19;4985594;28;20053;-57
2021/09/21 07:57:17;;;;;;;13.35;10.55;;;;;;;19.94;62.30;97230.19;4995473;28;20084;-59
2021/09/21 07:59:45;;;;;;;13.40;10.57;;;;;;;19.68;65.17;97239.50;4985856;28;20057;-59
2021/09/21 08:02:15;;;;;;;12.43;10.75;;;;;;;19.89;65.87;97247.66;4987572;28;20085;-57
2021/09/21 08:04:45;;;;;;;12.20;10.35;;;;;;;20.51;61.77;97251.78;4987272;28;20136;-58
2021/09/21 08:07:14;;;;;;;13.48;10.45;;;;;;;20.11;59.88;97251.25;4990299;28;20080;-59
2021/09/21 08:09:44;;;;;;;13.80;10.48;;;;;;;20.25;54.53;97257.59;4984815;28;20066;-55
2021/09/21 08:12:13;;;;;;;12.52;9.70;;;;;;;20.30;54.69;97257.03;4984964;28;20440;-59
2021/09/21 08:14:45;;;;;;;13.68;10.05;;;;;;;20.17;57.61;97257.72;4985999;28;20062;-59
2021/09/21 08:17:15;;;;;;;14.57;10.70;;;;;;;20.70;55.04;97257.56;4984663;28;20069;-56
2021/09/21 08:19:44;;;;;;;11.95;10.32;;;;;;;21.58;53.63;97260.94;4979900;28;20524;-59
2021/09/21 08:22:12;;;;;;;12.27;9.98;;;;;;;20.17;55.28;97254.22;4989422;28;20453;-59
2021/09/21 08:24:41;;;;;;;13.52;9.52;;;;;;;19.76;57.94;97255.47;4986347;28;20066;-58
2021/09/21 08:27:10;;;;;;;11.77;10.13;;;;;;;19.23;58.40;97264.44;4982832;28;20512;-59
2021/09/21 08:29:38;;;;;;;13.02;10.55;;;;;;;19.49;57.24;97270.25;4981344;28;20077;-55
2021/09/21 08:32:07;;;;;;;11.85;9.95;;;;;;;19.58;56.15;97271.00;4983474;28;20120;-58
2021/09/21 08:34:37;;;;;;;12.75;9.63;;;;;;;20.52;54.14;97274.88;4985844;28;20085;-58
2021/09/21 08:37:06;;;;;;;12.90;10.88;;;;;;;19.57;57.65;97274.69;4989476;28;20074;-59
2021/09/21 08:39:35;;;;;;;16.05;10.75;;;;;;;21.26;51.20;97268.47;4982765;28;20077;-58
2021/09/21 08:42:03;;;;;;;14.80;10.88;;;;;;;21.63;51.46;97275.41;4984631;28;20058;-57
2021/09/21 08:44:32;;;;;;;9.75;8.00;;;;;;;21.22;46.87;97284.09;4983636;28;20069;-54
2021/09/21 08:47:00;;;;;;;9.52;7.78;;;;;;;21.74;44.96;97287.47;4987926;28;20069;-57
2021/09/21 08:49:29;;;;;;;10.23;7.75;;;;;;;21.45;45.97;97270.53;4988639;28;20442;-59
2021/09/21 08:51:59;;;;;;;9.23;6.60;;;;;;;21.24;41.89;97276.72;4996372;28;21886;-59
2021/09/21 08:54:28;;;;;;;7.40;6.35;;;;;;;21.02;41.89;97281.22;4988538;28;20405;-57
2021/09/21 08:56:57;;;;;;;9.40;6.78;;;;;;;21.23;43.24;97284.94;4983226;28;20584;-58
2021/09/21 08:59:30;;;;;;;8.02;7.00;;;;;;;20.97;43.89;97286.34;4982353;28;20089;-57
2021/09/21 09:02:05;;;;;;;8.45;6.97;;;;;;;20.47;44.35;97292.50;4997145;28;20070;-58
2021/09/21 09:04:35;;;;;;;11.68;8.50;;;;;;;20.43;47.49;97297.41;4986192;28;20082;-57
2021/09/21 09:07:05;;;;;;;8.85;7.32;;;;;;;20.57;44.38;97295.75;4985637;28;20078;-59
2021/09/21 09:09:35;;;;;;;;;;;;;;;20.29;44.96;97299.06;4987071;28;20088;-57
2021/09/21 09:12:05;;;;;;;10.25;8.23;;;;;;;20.83;44.62;97304.13;4979985;28;19949;-58
2021/09/21 09:14:37;;;;;;;9.88;7.47;;;;;;;21.70;42.21;97310.38;5001201;28;20046;-59
2021/09/21 09:17:08;;;;;;;9.02;7.28;;;;;;;21.89;42.05;97308.88;4986037;28;20083;-59
2021/09/21 09:19:39;;;;;;;12.85;8.30;;;;;;;21.94;42.13;97309.13;4986365;28;20082;-59
2021/09/21 09:22:11;;;;;;;9.55;7.55;;;;;;;21.69;42.37;97304.19;4984022;28;20085;-59
2021/09/21 09:24:48;;;;;;;14.55;7.82;;;;;;;22.47;41.08;97302.25;4986653;28;20058;-58
2021/09/21 09:27:17;;;;;;;8.68;7.05;;;;;;;21.93;41.23;97310.97;4982041;28;20086;-59
2021/09/21 09:29:53;;;;;;;9.20;7.75;;;;;;;21.82;42.63;97306.16;4980153;28;20567;-58
2021/09/21 09:32:22;;;;;;;8.95;7.80;;;;;;;21.24;44.01;97308.06;5014411;28;20448;-58
2021/09/21 09:34:50;;;;;;;7.85;7.05;;;;;;;21.67;42.87;97316.13;4986229;28;20070;-58
2021/09/21 09:37:20;;;;;;;8.00;6.82;;;;;;;20.89;43.42;97307.06;4986908;28;20559;-58
2021/09/21 09:39:49;;;;;;;9.25;8.25;;;;;;;20.97;42.62;97305.09;4986567;28;20077;-59
2021/09/21 09:42:17;;;;;;;9.38;7.35;;;;;;;20.78;44.75;97305.69;4979432;28;20074;-59
2021/09/21 09:44:46;;;;;;;8.65;7.43;;;;;;;20.76;45.22;97305.91;4979763;28;20584;-57
2021/09/21 09:47:15;;;;;;;9.13;7.68;;;;;;;21.31;44.07;97300.91;4985567;28;20089;-53
2021/09/21 09:49:45;;;;;;;10.10;7.60;;;;;;;21.08;45.48;97301.91;4982923;28;20486;-57
2021/09/21 09:52:16;;;;;;;9.38;7.85;;;;;;;21.32;44.79;97295.34;4987640;28;20716;-57
2021/09/21 09:54:48;;;;;;;10.90;8.73;;;;;;;19.30;49.14;97306.34;4982345;28;20197;-58
2021/09/21 09:57:16;;;;;;;8.98;7.97;;;;;;;19.82;48.59;97305.63;4981532;28;20081;-56
2021/09/21 09:59:45;;;;;;;11.80;8.68;;;;;;;20.39;46.79;97301.47;4985631;28;20066;-58
2021/09/21 10:02:13;;;;;;;10.45;8.57;;;;;;;20.89;47.89;97297.19;4985904;28;20077;-59
2021/09/21 10:04:43;;;;;;;12.43;8.43;;;;;;;20.59;47.65;97302.59;4985145;28;20093;-59
2021/09/21 10:07:11;;;;;;;9.52;8.10;;;;;;;21.69;45.73;97304.19;4986831;28;20513;-58
2021/09/21 10:09:40;;;;;;;10.27;8.77;;;;;;;21.34;45.58;97295.22;4985476;28;20066;-60
2021/09/21 10:12:12;;;;;;;11.27;8.63;;;;;;;21.22;45.32;97305.56;4980983;28;20061;-59
2021/09/21 10:14:41;;;;;;;8.63;7.72;;;;;;;21.54;44.59;97306.09;4980715;28;20567;-58
2021/09/21 10:17:10;;;;;;;10.82;8.45;;;;;;;21.64;44.58;97300.41;4984697;28;20085;-58
2021/09/21 10:19:40;;;;;;;10.35;8.32;;;;;;;21.89;44.43;97298.97;4976638;28;20120;-59
2021/09/21 10:22:08;;;;;;;9.10;8.07;;;;;;;22.07;44.50;97306.53;4989212;28;20078;-55
2021/09/21 10:24:39;;;;;;;9.13;8.15;;;;;;;21.55;43.45;97305.91;4980613;28;20108;-58
2021/09/21 10:27:10;;;;;;;9.50;8.25;;;;;;;20.83;46.08;97303.31;4983731;28;20062;-59
2021/09/21 10:29:39;;;;;;;9.23;8.25;;;;;;;22.46;42.44;97297.88;4978494;28;20085;-57
2021/09/21 10:32:11;;;;;;;8.63;7.72;;;;;;;22.11;43.81;97301.59;4981276;28;20085;-58
2021/09/21 10:34:42;;;;;;;8.80;7.57;;;;;;;23.41;41.02;97303.41;4982430;28;20082;-59
2021/09/21 10:37:10;;;;;;;;;;;;;;;22.96;40.23;97298.53;4988006;28;20097;-59
2021/09/21 10:39:39;;;;;;;8.88;7.18;;;;;;;22.65;41.22;97308.94;4985036;28;19964;-57
2021/09/21 10:42:10;;;;;;;8.80;6.75;;;;;;;23.07;39.86;97302.50;4989252;28;20085;-59
2021/09/21 10:44:49;;;;;;;9.63;7.18;;;;;;;22.88;40.54;97305.91;4988001;28;20081;-59
2021/09/21 10:47:23;;;;;;;9.50;6.78;;;;;;;22.46;41.25;97307.81;4977014;28;20448;-58
2021/09/21 10:49:56;;;;;;;9.57;7.50;;;;;;;22.61;40.34;97313.91;4987683;28;20073;-59
2021/09/21 10:52:27;;;;;;;9.07;7.40;;;;;;;23.09;39.87;97318.44;4988946;28;20485;-59
2021/09/21 10:54:58;;;;;;;7.95;6.97;;;;;;;22.49;40.22;97315.47;4985261;28;20376;-57
2021/09/21 10:57:31;;;;;;;;;;;;;;;23.20;40.19;97310.59;4983161;28;20080;-58
2021/09/21 11:00:01;;;;;;;9.32;6.85;;;;;;;22.43;40.51;97318.97;4985809;28;19964;-58
2021/09/21 11:02:30;;;;;;;;;;;;;;;22.65;41.27;97317.84;4986419;28;20077;-59
2021/09/21 11:04:59;;;;;;;9.73;7.50;;;;;;;22.57;39.78;97315.31;4987383;28;19968;-59
2021/09/21 11:07:28;;;;;;;8.20;7.07;;;;;;;21.72;40.90;97321.75;4987197;28;20093;-58
2021/09/21 11:09:57;;;;;;;11.93;6.90;;;;;;;22.32;40.96;97316.84;4983383;28;20954;-53
2021/09/21 11:12:26;;;;;;;9.18;7.10;;;;;;;22.94;39.26;97319.44;4988048;28;20069;-58
2021/09/21 11:14:57;;;;;;;9.50;7.63;;;;;;;23.26;39.20;97324.28;4988675;28;20524;-59
2021/09/21 11:17:27;;;;;;;10.48;7.20;;;;;;;23.97;37.07;97323.75;4989796;28;20441;-59
2021/09/21 11:19:57;;;;;;;8.32;7.03;;;;;;;22.11;39.84;97331.97;4986091;28;20170;-58
2021/09/21 11:22:29;;;;;;;9.43;7.57;;;;;;;23.22;37.77;97318.47;4986953;28;20081;-57
2021/09/21 11:25:02;;;;;;;8.43;6.95;;;;;;;23.61;38.18;97315.03;4986244;28;20377;-57
2021/09/21 11:27:31;;;;;;;9.00;7.57;;;;;;;23.17;38.13;97318.25;4982840;28;20074;-58
2021/09/21 11:30:07;;;;;;;9.00;7.65;;;;;;;24.19;36.62;97308.16;4988277;28;20527;-58
2021/09/21 11:32:37;;;;;;;10.52;7.70;;;;;;;22.62;38.17;97312.03;4982308;28;20058;-58
2021/09/21 11:35:08;;;;;;;8.43;7.37;;;;;;;23.14;38.51;97303.34;4989291;28;20073;-58
2021/09/21 11:37:37;;;;;;;10.10;7.45;;;;;;;23.21;39.30;97306.88;4984196;28;20483;-59
2021/09/21 11:40:07;;;;;;;9.43;7.50;;;;;;;23.92;39.48;97300.13;4988053;28;20062;-59